createdAt,value
2022-09-27T00:00:11.153Z,19.55
2022-09-27T00:02:44.813Z,17.00
2022-09-27T00:05:14.013Z,14.02
2022-09-27T00:07:43.208Z,18.70
2022-09-27T00:10:19.573Z,19.20
2022-09-27T00:12:49.893Z,19.65
2022-09-27T00:15:19.835Z,30.77
2022-09-27T00:17:51.443Z,24.73
2022-09-27T00:20:22.179Z,43.40
2022-09-27T00:22:51.722Z,35.92
2022-09-27T00:25:22.797Z,37.25
2022-09-27T00:27:56.786Z,39.80
2022-09-27T00:33:01.048Z,38.22
2022-09-27T00:35:30.255Z,19.25
2022-09-27T00:37:59.409Z,41.22
2022-09-27T00:40:30.656Z,39.03
2022-09-27T00:45:51.791Z,36.45
2022-09-27T00:48:35.344Z,32.87
2022-09-27T00:51:09.291Z,33.38
2022-09-27T00:53:46.607Z,30.52
2022-09-27T00:56:20.368Z,25.90
2022-09-27T00:59:01.104Z,27.60
2022-09-27T01:01:30.826Z,31.85
2022-09-27T01:04:14.651Z,33.53
2022-09-27T01:06:43.844Z,33.50
2022-09-27T01:09:13.789Z,40.67
2022-09-27T01:11:48.402Z,36.78
2022-09-27T01:14:42.210Z,32.38
2022-09-27T01:17:27.234Z,40.45
2022-09-27T01:20:30.996Z,32.38
2022-09-27T01:23:35.938Z,46.28
2022-09-27T01:26:20.260Z,39.38
2022-09-27T01:29:08.659Z,33.40
2022-09-27T01:31:52.244Z,38.60
2022-09-27T01:34:29.073Z,27.85
2022-09-27T01:37:11.235Z,18.27
2022-09-27T01:48:03.759Z,33.80
2022-09-27T01:51:11.442Z,32.00
2022-09-27T01:53:44.507Z,39.78
2022-09-27T01:56:34.996Z,43.60
2022-09-27T01:59:20.591Z,37.45
2022-09-27T02:02:02.151Z,39.45
2022-09-27T02:04:46.259Z,44.85
2022-09-27T02:07:27.270Z,40.83
2022-09-27T02:12:53.612Z,38.75
2022-09-27T02:18:17.845Z,36.75
2022-09-27T02:20:53.959Z,37.92
2022-09-27T02:23:28.468Z,44.40
2022-09-27T02:26:13.974Z,38.78
2022-09-27T02:28:47.675Z,39.55
2022-09-27T02:31:25.606Z,40.78
2022-09-27T02:34:00.336Z,41.92
2022-09-27T02:36:32.636Z,39.80
2022-09-27T02:39:07.329Z,33.35
2022-09-27T02:41:36.772Z,38.72
2022-09-27T02:44:09.715Z,30.98
2022-09-27T02:47:07.226Z,33.83
2022-09-27T02:49:51.662Z,32.30
2022-09-27T02:52:51.064Z,30.00
2022-09-27T02:55:31.830Z,28.25
2022-09-27T02:58:16.961Z,33.90
2022-09-27T03:01:33.756Z,40.45
2022-09-27T03:04:16.156Z,34.10
2022-09-27T03:06:54.038Z,31.63
2022-09-27T03:09:30.069Z,35.33
2022-09-27T03:11:59.416Z,43.15
2022-09-27T03:14:28.479Z,30.70
2022-09-27T03:17:08.561Z,35.05
2022-09-27T03:20:18.771Z,32.72
2022-09-27T03:22:56.042Z,32.08
2022-09-27T03:25:27.687Z,33.65
2022-09-27T03:30:42.581Z,29.98
2022-09-27T03:33:13.082Z,32.72
2022-09-27T03:35:48.383Z,34.13
2022-09-27T03:38:18.213Z,32.88
2022-09-27T03:40:49.502Z,35.13
2022-09-27T03:43:24.840Z,29.67
2022-09-27T03:46:00.786Z,27.17
2022-09-27T03:48:36.076Z,30.25
2022-09-27T03:51:06.254Z,33.95
2022-09-27T03:53:36.175Z,37.83
2022-09-27T03:56:07.590Z,29.98
2022-09-27T03:58:36.900Z,30.52
2022-09-27T04:01:06.799Z,29.58
2022-09-27T04:03:38.242Z,35.92
2022-09-27T04:06:10.862Z,39.83
2022-09-27T04:08:47.024Z,33.55
2022-09-27T04:11:18.508Z,35.30
2022-09-27T04:13:49.549Z,33.60
2022-09-27T04:16:21.025Z,33.40
2022-09-27T04:19:01.198Z,34.58
2022-09-27T04:21:48.528Z,33.95
2022-09-27T04:24:24.836Z,29.10
2022-09-27T04:27:16.703Z,30.30
2022-09-27T04:29:47.114Z,34.88
2022-09-27T04:32:36.416Z,33.58
2022-09-27T04:35:43.729Z,30.92
2022-09-27T04:38:13.915Z,33.90
2022-09-27T04:40:43.070Z,35.33
2022-09-27T04:43:14.452Z,31.17
2022-09-27T04:45:45.244Z,36.95
2022-09-27T04:48:19.942Z,33.67
2022-09-27T04:50:57.193Z,32.60
2022-09-27T04:53:26.426Z,37.33
2022-09-27T04:55:56.209Z,30.52
2022-09-27T05:01:06.733Z,32.42
2022-09-27T05:03:59.484Z,29.38
2022-09-27T05:06:30.572Z,36.42
2022-09-27T05:09:07.241Z,32.47
2022-09-27T05:11:49.235Z,37.35
2022-09-27T05:14:20.812Z,36.38
2022-09-27T05:19:47.793Z,35.80
2022-09-27T05:22:29.200Z,26.90
2022-09-27T05:25:03.578Z,28.15
2022-09-27T05:27:32.817Z,31.25
2022-09-27T05:30:03.885Z,31.02
2022-09-27T05:32:45.068Z,29.15
2022-09-27T05:35:29.542Z,30.67
2022-09-27T05:38:01.803Z,33.05
2022-09-27T05:40:41.369Z,27.17
2022-09-27T05:43:12.147Z,30.55
2022-09-27T05:45:43.890Z,30.25
2022-09-27T05:48:15.010Z,29.30
2022-09-27T05:50:55.129Z,23.73
2022-09-27T05:53:24.912Z,26.40
2022-09-27T05:55:54.629Z,27.52
2022-09-27T05:58:31.715Z,25.65
2022-09-27T06:01:16.893Z,26.73
2022-09-27T06:04:08.708Z,24.00
2022-09-27T06:07:15.878Z,21.15
2022-09-27T06:09:45.819Z,23.77
2022-09-27T06:12:22.314Z,24.75
2022-09-27T06:14:51.737Z,22.05
2022-09-27T06:17:39.456Z,24.40
2022-09-27T06:20:22.425Z,17.48
2022-09-27T06:22:56.635Z,20.10
2022-09-27T06:25:26.517Z,22.80
2022-09-27T06:28:16.016Z,23.35
2022-09-27T06:30:49.202Z,24.00
2022-09-27T06:33:34.974Z,22.67
2022-09-27T06:36:07.693Z,27.40
2022-09-27T06:38:39.203Z,22.77
2022-09-27T06:41:18.987Z,26.05
2022-09-27T06:43:58.622Z,19.08
2022-09-27T06:49:52.472Z,18.33
2022-09-27T06:52:21.848Z,16.33
2022-09-27T06:54:57.756Z,15.88
2022-09-27T06:57:39.670Z,15.95
2022-09-27T07:00:28.187Z,10.60
2022-09-27T07:03:22.558Z,11.98
2022-09-27T07:06:17.724Z,10.32
2022-09-27T07:08:54.104Z,8.40
2022-09-27T07:11:25.647Z,10.52
2022-09-27T07:13:56.363Z,13.73
2022-09-27T07:16:25.705Z,9.23
2022-09-27T07:18:55.348Z,12.00
2022-09-27T07:21:32.971Z,9.80
2022-09-27T07:24:07.568Z,9.48
2022-09-27T07:26:36.729Z,10.25
2022-09-27T07:31:39.436Z,9.95
2022-09-27T07:34:14.814Z,8.65
2022-09-27T07:36:46.390Z,9.38
2022-09-27T07:39:16.369Z,6.72
2022-09-27T07:41:47.130Z,10.65
2022-09-27T07:44:17.469Z,12.65
2022-09-27T07:47:10.740Z,11.63
2022-09-27T07:50:02.966Z,19.05
2022-09-27T07:55:38.889Z,17.08
2022-09-27T07:58:14.820Z,13.75
2022-09-27T08:00:50.305Z,10.13
2022-09-27T08:03:20.149Z,18.95
2022-09-27T08:05:50.768Z,15.75
2022-09-27T08:08:22.375Z,20.70
2022-09-27T08:11:14.730Z,16.17
2022-09-27T08:13:44.327Z,16.83
2022-09-27T08:16:14.277Z,12.75
2022-09-27T08:19:11.238Z,11.15
2022-09-27T08:22:03.454Z,13.73
2022-09-27T08:24:47.114Z,16.08
2022-09-27T08:27:23.603Z,15.02
2022-09-27T08:29:55.822Z,13.20
2022-09-27T08:32:27.574Z,15.55
2022-09-27T08:34:57.064Z,10.95
2022-09-27T08:37:26.342Z,15.13
2022-09-27T08:40:04.238Z,10.88
2022-09-27T08:42:45.710Z,13.88
2022-09-27T08:45:26.727Z,13.82
2022-09-27T08:47:59.890Z,11.52
2022-09-27T08:50:40.395Z,11.80
2022-09-27T08:53:23.244Z,14.13
2022-09-27T08:55:57.174Z,7.18
2022-09-27T08:58:32.780Z,7.13
2022-09-27T09:01:08.817Z,5.68
2022-09-27T09:03:48.725Z,8.45
2022-09-27T09:06:25.851Z,7.85
2022-09-27T09:09:05.496Z,7.55
2022-09-27T09:12:04.092Z,7.65
2022-09-27T09:14:50.781Z,8.10
2022-09-27T09:17:32.637Z,5.80
2022-09-27T09:20:40.193Z,9.00
2022-09-27T09:23:39.910Z,6.57
2022-09-27T09:26:18.412Z,4.82
2022-09-27T09:29:07.711Z,6.57
2022-09-27T09:31:49.121Z,5.88
2022-09-27T09:34:23.919Z,2.83
2022-09-27T09:36:59.250Z,6.55
2022-09-27T09:39:34.987Z,3.08
2022-09-27T09:42:15.305Z,2.33
2022-09-27T09:44:57.035Z,5.10
2022-09-27T09:47:37.623Z,3.88
2022-09-27T09:50:24.144Z,3.58
2022-09-27T09:53:06.561Z,2.88
2022-09-27T09:55:38.314Z,2.55
2022-09-27T09:58:21.128Z,3.33
2022-09-27T10:01:03.315Z,2.40
2022-09-27T10:03:33.852Z,2.88
2022-09-27T10:06:08.690Z,1.70
2022-09-27T10:08:37.923Z,1.88
2022-09-27T10:11:38.860Z,1.23
2022-09-27T10:14:17.275Z,2.33
2022-09-27T10:17:05.934Z,1.58
2022-09-27T10:19:39.168Z,5.35
2022-09-27T10:22:16.569Z,4.80
2022-09-27T10:24:57.740Z,6.55
2022-09-27T10:27:45.854Z,6.32
2022-09-27T10:30:31.164Z,5.50
2022-09-27T10:33:09.535Z,6.05
2022-09-27T10:35:50.521Z,5.60
2022-09-27T10:38:32.566Z,4.43
2022-09-27T10:41:23.872Z,4.65
2022-09-27T10:43:58.518Z,5.37
2022-09-27T10:46:35.758Z,3.67
2022-09-27T10:49:39.453Z,4.47
2022-09-27T10:54:56.969Z,4.38
2022-09-27T10:57:29.672Z,4.55
2022-09-27T11:00:02.568Z,4.25
2022-09-27T11:02:36.491Z,2.38
2022-09-27T11:05:15.760Z,3.65
2022-09-27T11:07:53.061Z,3.10
2022-09-27T11:10:36.394Z,3.58
2022-09-27T11:13:17.936Z,5.15
2022-09-27T11:16:02.951Z,2.70
2022-09-27T11:18:48.076Z,3.60
2022-09-27T11:21:36.113Z,3.55
2022-09-27T11:24:29.333Z,3.08
2022-09-27T11:27:16.196Z,3.00
2022-09-27T11:30:03.464Z,2.35
2022-09-27T11:33:14.170Z,4.13
2022-09-27T11:35:58.386Z,4.60
2022-09-27T11:38:53.257Z,3.00
2022-09-27T11:41:39.821Z,4.40
2022-09-27T11:44:42.529Z,4.63
2022-09-27T11:47:22.859Z,4.47
2022-09-27T11:50:32.490Z,5.25
2022-09-27T11:53:21.565Z,3.05
2022-09-27T11:56:02.918Z,3.63
2022-09-27T11:58:40.987Z,5.40
2022-09-27T12:01:27.182Z,7.07
2022-09-27T12:04:23.598Z,9.00
2022-09-27T12:07:06.770Z,6.25
2022-09-27T12:09:40.923Z,8.60
2022-09-27T12:12:19.216Z,9.63
2022-09-27T12:14:54.325Z,5.35
2022-09-27T12:17:32.187Z,10.73
2022-09-27T12:20:09.086Z,5.32
2022-09-27T12:23:00.408Z,3.75
2022-09-27T12:25:41.299Z,4.65
2022-09-27T12:28:34.360Z,4.63
2022-09-27T12:31:28.359Z,4.38
2022-09-27T12:34:17.424Z,7.22
2022-09-27T12:36:56.162Z,6.25
2022-09-27T12:39:34.184Z,5.03
2022-09-27T12:42:22.919Z,4.00
2022-09-27T12:44:55.240Z,5.05
2022-09-27T12:47:43.192Z,3.55
2022-09-27T12:56:51.425Z,2.63
2022-09-27T12:59:49.458Z,5.68
2022-09-27T13:03:04.061Z,4.97
2022-09-27T13:08:36.325Z,3.80
2022-09-27T13:11:18.525Z,4.78
2022-09-27T13:13:50.230Z,3.90
2022-09-27T13:19:01.169Z,8.40
2022-09-27T13:21:59.419Z,5.75
2022-09-27T13:24:51.290Z,4.15
2022-09-27T13:27:52.922Z,5.05
2022-09-27T13:30:50.250Z,3.53
2022-09-27T13:33:42.742Z,5.22
2022-09-27T13:36:30.118Z,4.47
2022-09-27T13:39:22.678Z,6.40
2022-09-27T13:42:33.470Z,4.68
2022-09-27T13:45:25.786Z,5.03
2022-09-27T13:48:05.063Z,7.40
2022-09-27T13:50:48.070Z,6.28
2022-09-27T13:53:26.950Z,4.35
2022-09-27T13:55:56.301Z,6.68
2022-09-27T13:58:56.644Z,3.90
2022-09-27T14:01:51.279Z,5.28
2022-09-27T14:04:30.314Z,5.43
2022-09-27T14:07:02.183Z,6.25
2022-09-27T14:09:35.325Z,3.15
2022-09-27T14:12:26.574Z,4.88
2022-09-27T14:15:03.267Z,5.25
2022-09-27T14:17:34.595Z,5.40
2022-09-27T14:20:32.847Z,6.00
2022-09-27T14:23:04.231Z,2.97
2022-09-27T14:25:45.913Z,4.47
2022-09-27T14:28:27.431Z,6.45
2022-09-27T14:31:17.700Z,5.47
2022-09-27T14:34:09.181Z,3.13
2022-09-27T14:36:59.073Z,8.18
2022-09-27T14:39:42.257Z,4.07
2022-09-27T14:42:40.978Z,5.55
2022-09-27T14:45:22.070Z,7.75
2022-09-27T14:47:52.477Z,3.80
2022-09-27T14:50:24.521Z,8.80
2022-09-27T14:52:57.290Z,8.20
2022-09-27T14:55:29.484Z,5.30
2022-09-27T14:58:02.620Z,6.97
2022-09-27T15:00:34.951Z,4.35
2022-09-27T15:03:08.598Z,5.15
2022-09-27T15:05:37.944Z,9.27
2022-09-27T15:08:09.259Z,5.45
2022-09-27T15:10:45.565Z,8.85
2022-09-27T15:13:19.252Z,5.93
2022-09-27T15:15:53.508Z,8.23
2022-09-27T15:18:52.089Z,7.35
2022-09-27T15:21:31.151Z,7.70
2022-09-27T15:24:02.957Z,6.13
2022-09-27T15:29:20.051Z,9.82
2022-09-27T15:32:01.393Z,9.02
2022-09-27T15:34:32.492Z,7.97
2022-09-27T15:37:03.204Z,8.13
2022-09-27T15:39:36.994Z,9.90
2022-09-27T15:42:09.095Z,6.63
2022-09-27T15:44:46.720Z,10.35
2022-09-27T15:47:44.346Z,10.50
2022-09-27T15:50:39.285Z,9.85
2022-09-27T15:53:09.022Z,7.95
2022-09-27T15:55:43.579Z,9.23
2022-09-27T15:58:17.916Z,7.32
2022-09-27T16:00:54.518Z,8.80
2022-09-27T16:03:24.321Z,8.93
2022-09-27T16:05:55.648Z,7.78
2022-09-27T16:08:25.069Z,8.90
2022-09-27T16:11:05.256Z,8.32
2022-09-27T16:13:35.026Z,6.57
2022-09-27T16:16:10.540Z,12.63
2022-09-27T16:18:39.768Z,9.05
2022-09-27T16:21:15.471Z,9.00
2022-09-27T16:23:44.716Z,8.60
2022-09-27T16:26:15.662Z,8.15
2022-09-27T16:31:23.968Z,6.57
2022-09-27T16:33:53.177Z,7.18
2022-09-27T16:36:22.116Z,7.75
2022-09-27T16:38:52.621Z,9.55
2022-09-27T16:41:35.309Z,6.18
2022-09-27T16:44:13.514Z,5.75
2022-09-27T16:46:43.165Z,6.53
2022-09-27T16:49:32.320Z,9.95
2022-09-27T16:51:59.697Z,7.45
2022-09-27T16:54:30.017Z,9.57
2022-09-27T16:57:06.763Z,7.65
2022-09-27T16:59:35.885Z,8.80
2022-09-27T17:02:05.459Z,7.93
2022-09-27T17:04:39.794Z,7.82
2022-09-27T17:07:08.937Z,5.65
2022-09-27T17:09:39.568Z,10.23
2022-09-27T17:12:12.002Z,7.15
2022-09-27T17:14:47.113Z,8.18
2022-09-27T17:17:16.669Z,7.57
2022-09-27T17:19:45.798Z,7.65
2022-09-27T17:22:20.868Z,9.70
2022-09-27T17:24:50.781Z,7.03
2022-09-27T17:27:25.704Z,9.45
2022-09-27T17:29:56.061Z,5.32
2022-09-27T17:32:25.062Z,13.75
2022-09-27T17:34:55.511Z,6.60
2022-09-27T17:37:24.642Z,11.95
2022-09-27T17:39:54.429Z,10.25
2022-09-27T17:42:25.785Z,6.72
2022-09-27T17:44:54.869Z,7.15
2022-09-27T17:47:36.775Z,4.95
2022-09-27T17:52:48.039Z,10.13
2022-09-27T17:55:22.907Z,9.02
2022-09-27T17:57:55.854Z,9.02
2022-09-27T18:00:24.960Z,13.23
2022-09-27T18:02:54.714Z,7.55
2022-09-27T18:05:29.030Z,11.05
2022-09-27T18:07:58.342Z,11.75
2022-09-27T18:10:27.469Z,11.45
2022-09-27T18:12:58.803Z,10.02
2022-09-27T18:15:28.558Z,9.02
2022-09-27T18:17:58.400Z,10.85
2022-09-27T18:20:28.075Z,9.15
2022-09-27T18:22:57.178Z,8.70
2022-09-27T18:25:27.049Z,10.98
2022-09-27T18:27:58.005Z,8.10
2022-09-27T18:30:27.377Z,8.38
2022-09-27T18:32:56.402Z,7.75
2022-09-27T18:35:35.641Z,9.93
2022-09-27T18:38:04.859Z,8.18
2022-09-27T18:40:55.121Z,7.40
2022-09-27T18:43:25.292Z,5.57
2022-09-27T18:46:17.819Z,5.85
2022-09-27T18:48:48.746Z,8.18
2022-09-27T18:51:19.917Z,5.35
2022-09-27T18:53:49.982Z,11.05
2022-09-27T18:56:19.534Z,5.18
2022-09-27T18:58:52.013Z,6.80
2022-09-27T19:01:23.052Z,5.63
2022-09-27T19:03:52.269Z,6.65
2022-09-27T19:06:25.355Z,5.50
2022-09-27T19:09:03.545Z,4.32
2022-09-27T19:11:33.517Z,6.15
2022-09-27T19:14:05.027Z,8.60
2022-09-27T19:19:06.510Z,5.07
2022-09-27T19:21:35.493Z,5.20
2022-09-27T19:24:15.617Z,9.15
2022-09-27T19:26:45.685Z,6.43
2022-09-27T19:29:16.850Z,8.48
2022-09-27T19:31:46.186Z,4.70
2022-09-27T19:34:15.603Z,6.40
2022-09-27T19:36:44.754Z,6.53
2022-09-27T19:39:13.799Z,6.68
2022-09-27T19:41:42.904Z,5.57
2022-09-27T19:44:18.944Z,6.13
2022-09-27T19:46:48.162Z,8.40
2022-09-27T19:49:18.466Z,8.13
2022-09-27T19:51:47.590Z,8.88
2022-09-27T19:54:22.002Z,5.63
2022-09-27T19:56:51.191Z,5.85
2022-09-27T19:59:22.443Z,8.25
2022-09-27T20:01:56.906Z,7.72
2022-09-27T20:04:28.149Z,7.47
2022-09-27T20:07:03.875Z,9.27
2022-09-27T20:09:33.069Z,6.70
2022-09-27T20:12:02.542Z,6.53
2022-09-27T20:14:39.255Z,10.80
2022-09-27T20:17:13.638Z,10.10
2022-09-27T20:19:47.634Z,8.30
2022-09-27T20:22:16.798Z,6.65
2022-09-27T20:24:45.787Z,7.15
2022-09-27T20:27:15.025Z,7.95
2022-09-27T20:29:51.144Z,6.53
2022-09-27T20:32:28.155Z,7.53
2022-09-27T20:34:57.446Z,7.90
2022-09-27T20:37:26.499Z,6.85
2022-09-27T20:39:55.602Z,4.65
2022-09-27T20:42:24.692Z,6.18
2022-09-27T20:45:01.150Z,6.75
2022-09-27T20:47:30.331Z,6.63
2022-09-27T20:49:59.288Z,10.27
2022-09-27T20:52:28.402Z,4.93
2022-09-27T20:54:57.403Z,5.18
2022-09-27T20:57:55.952Z,6.63
2022-09-27T21:00:29.199Z,7.78
2022-09-27T21:03:03.379Z,4.05
2022-09-27T21:05:32.420Z,5.32
2022-09-27T21:08:02.553Z,4.28
2022-09-27T21:10:31.841Z,4.20
2022-09-27T21:13:01.569Z,3.22
2022-09-27T21:15:33.627Z,5.60
2022-09-27T21:18:02.865Z,5.35
2022-09-27T21:20:36.972Z,6.20
2022-09-27T21:23:06.091Z,3.88
2022-09-27T21:25:35.172Z,4.75
2022-09-27T21:28:04.933Z,3.58
2022-09-27T21:30:37.481Z,2.28
2022-09-27T21:33:06.700Z,9.63
2022-09-27T21:35:35.790Z,4.65
2022-09-27T21:38:04.956Z,4.00
2022-09-27T21:40:34.221Z,4.53
2022-09-27T21:43:03.230Z,3.88
2022-09-27T21:45:45.548Z,4.28
2022-09-27T21:48:14.560Z,3.45
2022-09-27T21:50:43.594Z,3.45
2022-09-27T21:53:12.653Z,4.18
2022-09-27T21:55:41.646Z,4.63
2022-09-27T21:58:15.937Z,4.35
2022-09-27T22:00:46.960Z,3.05
2022-09-27T22:06:01.206Z,2.70
2022-09-27T22:08:30.828Z,5.25
2022-09-27T22:11:00.087Z,4.30
2022-09-27T22:13:29.744Z,5.55
2022-09-27T22:16:10.305Z,4.88
2022-09-27T22:18:40.923Z,3.33
2022-09-27T22:21:13.126Z,2.55
2022-09-27T22:23:47.276Z,5.57
2022-09-27T22:26:18.791Z,3.95
2022-09-27T22:28:48.771Z,4.53
2022-09-27T22:31:22.050Z,5.30
2022-09-27T22:33:52.154Z,3.42
2022-09-27T22:36:21.124Z,4.80
2022-09-27T22:38:56.042Z,5.57
2022-09-27T22:41:25.609Z,5.38
2022-09-27T22:43:55.597Z,2.42
2022-09-27T22:46:32.269Z,3.63
2022-09-27T22:49:01.742Z,3.65
2022-09-27T22:51:31.080Z,2.45
2022-09-27T22:54:00.393Z,4.10
2022-09-27T22:56:34.479Z,2.95
2022-09-27T22:59:03.647Z,2.03
2022-09-27T23:01:35.715Z,2.95
2022-09-27T23:04:04.825Z,3.60
2022-09-27T23:06:33.992Z,5.28
2022-09-27T23:09:03.085Z,3.38
2022-09-27T23:11:32.781Z,3.25
2022-09-27T23:14:01.898Z,2.53
2022-09-27T23:16:30.875Z,2.58
2022-09-27T23:19:02.642Z,2.67
2022-09-27T23:21:32.463Z,4.82
2022-09-27T23:24:01.418Z,3.40
2022-09-27T23:26:31.443Z,4.53
2022-09-27T23:29:02.194Z,4.88
2022-09-27T23:31:38.455Z,3.97
2022-09-27T23:34:11.803Z,4.88
2022-09-27T23:36:46.443Z,4.07
2022-09-27T23:39:15.546Z,5.60
2022-09-27T23:41:44.484Z,6.07
2022-09-27T23:44:13.910Z,4.47
2022-09-27T23:46:43.098Z,3.78
2022-09-27T23:49:14.648Z,2.53
2022-09-27T23:51:44.949Z,3.13
2022-09-27T23:54:14.227Z,5.43
2022-09-27T23:56:43.237Z,3.42
2022-09-27T23:59:12.234Z,3.25
